Time;durP1;ratioP1;P1;durP2;ratioP2;P2;SDS_P1;SDS_P2;PMS_P1;PMS_P2;Temp;Humidity;BMP_temperature;BMP_pressure;BME280_temperature;BME280_humidity;BME280_pressure;Samples;Min_cycle;Max_cycle;Signal;HPM_P1;HPM_P2
2023/06/06 00:01:56;;;;;;;25.27;22.42;;;;;;;;;;5032843;28;20037;-76
2023/06/06 00:04:21;;;;;;;14.70;12.38;;;;;;;;;;5014268;28;20605;-76
2023/06/06 00:06:47;;;;;;;15.98;11.80;;;;;;;;;;5032302;28;20041;-76
2023/06/06 00:09:13;;;;;;;15.45;12.13;;;;;;;;;;5014087;28;20432;-76
2023/06/06 00:11:42;;;;;;;28.88;15.45;;;;;;;;;;5032222;28;20052;-76
2023/06/06 00:14:08;;;;;;;14.40;11.90;;;;;;;;;;5014908;28;20029;-76
2023/06/06 00:16:34;;;;;;;18.73;13.35;;;;;;;;;;5014454;28;20030;-76
2023/06/06 00:19:00;;;;;;;15.05;12.07;;;;;;;;;;5032612;28;20433;-75
2023/06/06 00:21:27;;;;;;;18.33;13.82;;;;;;;;;;5014328;28;20079;-76
2023/06/06 00:23:55;;;;;;;17.60;13.55;;;;;;;;;;5032142;28;20048;-76
2023/06/06 00:26:21;;;;;;;20.33;15.18;;;;;;;;;;5014012;28;20072;-75
2023/06/06 00:28:46;;;;;;;19.85;15.02;;;;;;;;;;5032270;28;20478;-76
2023/06/06 00:31:12;;;;;;;17.20;13.77;;;;;;;;;;5013944;28;20103;-76
2023/06/06 00:33:38;;;;;;;18.98;14.88;;;;;;;;;;5014039;28;20488;-76
2023/06/06 00:36:04;;;;;;;20.35;15.02;;;;;;;;;;5032346;28;20544;-76
2023/06/06 00:38:29;;;;;;;17.73;14.55;;;;;;;;;;5015509;28;20037;-76
2023/06/06 00:40:55;;;;;;;19.08;14.77;;;;;;;;;;5012911;28;20029;-76
2023/06/06 00:43:20;;;;;;;20.95;15.80;;;;;;;;;;5031592;28;20029;-75
2023/06/06 00:45:45;;;;;;;17.95;14.70;;;;;;;;;;5032185;28;20025;-76
2023/06/06 00:48:11;;;;;;;20.45;15.27;;;;;;;;;;5031798;28;20551;-76
2023/06/06 00:50:38;;;;;;;21.98;14.68;;;;;;;;;;4997945;28;20052;-76
2023/06/06 00:53:04;;;;;;;19.65;14.40;;;;;;;;;;5030155;28;20041;-76
2023/06/06 00:55:31;;;;;;;21.10;15.77;;;;;;;;;;5013565;28;20095;-75
2023/06/06 00:57:59;;;;;;;22.85;16.95;;;;;;;;;;5031971;28;20037;-76
2023/06/06 01:00:27;;;;;;;23.52;16.45;;;;;;;;;;5013410;28;20064;-76
2023/06/06 01:02:53;;;;;;;20.13;15.85;;;;;;;;;;5013508;28;20045;-76
2023/06/06 01:05:20;;;;;;;20.23;16.05;;;;;;;;;;5013926;28;20025;-74
2023/06/06 01:07:47;;;;;;;22.38;15.52;;;;;;;;;;5032952;28;20044;-76
2023/06/06 01:10:14;;;;;;;21.08;15.80;;;;;;;;;;5033470;28;20033;-77
2023/06/06 01:12:55;;;;;;;20.30;16.08;;;;;;;;;;5035990;28;20033;-77
2023/06/06 01:15:29;;;;;;;25.17;16.58;;;;;;;;;;5011051;28;20473;-75
2023/06/06 01:17:55;;;;;;;20.00;15.68;;;;;;;;;;5016180;28;20547;-75
2023/06/06 01:20:23;;;;;;;21.85;15.85;;;;;;;;;;4997682;28;20395;-75
2023/06/06 01:22:52;;;;;;;26.77;17.67;;;;;;;;;;4993672;28;20441;-76
2023/06/06 01:25:21;;;;;;;24.08;17.15;;;;;;;;;;4987130;28;20084;-76
2023/06/06 01:27:53;;;;;;;20.05;16.20;;;;;;;;;;4974642;28;20101;-77
2023/06/06 01:30:21;;;;;;;22.65;15.70;;;;;;;;;;4994879;28;20034;-76
2023/06/06 01:32:56;;;;;;;20.63;15.00;;;;;;;;;;4975471;28;20066;-76
2023/06/06 01:35:39;;;;;;;20.05;15.00;;;;;;;;;;4991839;28;20022;-76
2023/06/06 01:38:30;;;;;;;19.33;14.52;;;;;;;;;;4991826;28;20077;-76
2023/06/06 01:41:00;;;;;;;16.88;14.05;;;;;;;;;;4984921;28;20058;-75
2023/06/06 01:43:28;;;;;;;16.95;13.48;;;;;;;;;;4991323;28;20038;-76
2023/06/06 01:45:55;;;;;;;17.33;13.52;;;;;;;;;;4974687;28;20026;-73
2023/06/06 01:48:22;;;;;;;16.42;12.40;;;;;;;;;;4991410;28;20037;-73
2023/06/06 01:50:48;;;;;;;15.32;12.20;;;;;;;;;;4992887;28;20061;-73
2023/06/06 01:53:13;;;;;;;18.55;13.68;;;;;;;;;;4990955;28;20036;-74
2023/06/06 01:55:39;;;;;;;16.88;12.45;;;;;;;;;;4976437;28;20023;-73
2023/06/06 01:58:05;;;;;;;14.15;11.98;;;;;;;;;;5030703;28;20025;-74
2023/06/06 02:00:31;;;;;;;14.75;11.90;;;;;;;;;;5029980;28;20470;-74
2023/06/06 02:02:58;;;;;;;13.50;11.05;;;;;;;;;;5012397;28;20073;-73
2023/06/06 02:05:23;;;;;;;18.58;11.68;;;;;;;;;;5029818;28;20082;-74
2023/06/06 02:07:49;;;;;;;16.42;12.13;;;;;;;;;;5029998;28;20498;-74
2023/06/06 02:10:15;;;;;;;22.48;11.25;;;;;;;;;;5012103;28;20032;-75
2023/06/06 02:12:41;;;;;;;12.07;10.13;;;;;;;;;;5030024;28;20112;-74
2023/06/06 02:15:09;;;;;;;13.85;10.65;;;;;;;;;;5012038;28;20122;-74
2023/06/06 02:17:35;;;;;;;13.75;10.85;;;;;;;;;;5029783;28;20029;-75
2023/06/06 02:20:01;;;;;;;13.73;11.38;;;;;;;;;;5012271;28;20037;-74
2023/06/06 02:22:27;;;;;;;13.88;11.02;;;;;;;;;;5011709;28;20029;-74
2023/06/06 02:24:52;;;;;;;14.05;10.98;;;;;;;;;;5011606;28;20484;-73
2023/06/06 02:27:19;;;;;;;14.07;11.70;;;;;;;;;;5029657;28;20487;-75
2023/06/06 02:29:45;;;;;;;16.38;11.38;;;;;;;;;;5029586;28;20037;-73
2023/06/06 02:32:11;;;;;;;12.40;10.45;;;;;;;;;;5011716;28;20033;-75
2023/06/06 02:34:38;;;;;;;14.88;11.48;;;;;;;;;;5029704;28;20026;-74
2023/06/06 02:37:07;;;;;;;17.38;11.73;;;;;;;;;;5011578;28;20947;-74
2023/06/06 02:39:36;;;;;;;16.85;12.10;;;;;;;;;;5029479;28;20390;-74
2023/06/06 02:42:03;;;;;;;14.20;11.05;;;;;;;;;;5029591;28;20033;-74
2023/06/06 02:44:30;;;;;;;20.50;11.80;;;;;;;;;;5029250;28;20029;-74
2023/06/06 02:46:57;;;;;;;16.20;11.88;;;;;;;;;;5011485;28;20083;-74
2023/06/06 02:49:22;;;;;;;17.38;11.80;;;;;;;;;;5011422;28;20033;-74
2023/06/06 02:51:48;;;;;;;16.10;11.77;;;;;;;;;;5011688;28;20445;-74
2023/06/06 02:54:13;;;;;;;15.77;12.73;;;;;;;;;;5011408;28;20072;-74
2023/06/06 02:56:39;;;;;;;17.23;11.48;;;;;;;;;;5017788;28;20033;-74
2023/06/06 02:59:07;;;;;;;15.27;12.23;;;;;;;;;;5009604;28;20540;-74
2023/06/06 03:01:34;;;;;;;15.45;12.27;;;;;;;;;;4992530;28;20061;-75
2023/06/06 03:04:00;;;;;;;16.92;12.57;;;;;;;;;;5009858;28;20022;-74
2023/06/06 03:06:28;;;;;;;16.00;10.95;;;;;;;;;;5010029;28;20072;-73
2023/06/06 03:08:57;;;;;;;16.90;12.02;;;;;;;;;;4991597;28;20065;-74
2023/06/06 03:11:26;;;;;;;18.38;12.02;;;;;;;;;;5009349;28;20109;-75
2023/06/06 03:13:52;;;;;;;12.68;10.38;;;;;;;;;;5009243;28;20030;-76
2023/06/06 03:16:17;;;;;;;12.65;10.50;;;;;;;;;;4991272;28;20034;-75
2023/06/06 03:18:46;;;;;;;13.10;9.63;;;;;;;;;;5009652;28;20034;-75
2023/06/06 03:21:12;;;;;;;12.27;8.95;;;;;;;;;;5008462;28;20029;-74
2023/06/06 03:23:38;;;;;;;14.75;10.05;;;;;;;;;;5007965;28;20510;-75
2023/06/06 03:26:04;;;;;;;12.77;11.00;;;;;;;;;;5008855;28;20403;-76
2023/06/06 03:28:31;;;;;;;13.27;10.10;;;;;;;;;;4991112;28;20129;-76
2023/06/06 03:30:57;;;;;;;11.40;10.15;;;;;;;;;;5009849;28;20072;-75
2023/06/06 03:33:23;;;;;;;13.52;10.43;;;;;;;;;;4991763;28;20471;-76
2023/06/06 03:35:48;;;;;;;16.10;11.27;;;;;;;;;;5009380;28;20034;-75
2023/06/06 03:38:14;;;;;;;13.70;10.70;;;;;;;;;;5008027;28;20037;-75
2023/06/06 03:40:39;;;;;;;14.55;10.18;;;;;;;;;;4991430;28;20382;-74
2023/06/06 03:43:05;;;;;;;15.27;11.00;;;;;;;;;;4991865;28;20398;-75
2023/06/06 03:45:31;;;;;;;13.32;11.40;;;;;;;;;;4991526;28;20018;-75
2023/06/06 03:47:57;;;;;;;19.13;11.60;;;;;;;;;;4991904;28;20034;-76
2023/06/06 03:50:22;;;;;;;13.80;10.48;;;;;;;;;;5007755;28;20586;-75
2023/06/06 03:52:48;;;;;;;15.38;11.93;;;;;;;;;;5009367;28;20029;-76
2023/06/06 03:55:13;;;;;;;17.77;12.07;;;;;;;;;;5009110;28;20030;-76
2023/06/06 03:57:40;;;;;;;17.15;11.65;;;;;;;;;;5008984;28;20034;-75
2023/06/06 04:00:11;;;;;;;18.77;11.90;;;;;;;;;;5009292;28;20093;-75
2023/06/06 04:02:40;;;;;;;15.77;11.45;;;;;;;;;;5009329;28;20034;-76
2023/06/06 04:05:07;;;;;;;15.43;11.23;;;;;;;;;;5009304;28;20026;-75
2023/06/06 04:07:32;;;;;;;15.98;11.73;;;;;;;;;;5008648;28;20026;-76
2023/06/06 04:09:58;;;;;;;16.90;12.65;;;;;;;;;;5009007;28;20610;-76
2023/06/06 04:12:24;;;;;;;15.80;12.10;;;;;;;;;;5009193;28;20496;-76
2023/06/06 04:14:50;;;;;;;13.32;11.27;;;;;;;;;;4991165;28;20092;-75
2023/06/06 04:17:15;;;;;;;17.40;12.77;;;;;;;;;;4994609;28;20026;-75
2023/06/06 04:19:41;;;;;;;15.32;11.48;;;;;;;;;;4995053;28;20036;-76
2023/06/06 04:22:07;;;;;;;13.77;10.35;;;;;;;;;;4995153;28;20045;-76
2023/06/06 04:24:32;;;;;;;14.60;11.02;;;;;;;;;;4994877;28;20029;-76
2023/06/06 04:27:03;;;;;;;15.23;11.45;;;;;;;;;;5012463;28;20050;-76
2023/06/06 04:29:32;;;;;;;13.40;10.43;;;;;;;;;;5010996;28;20037;-76
2023/06/06 04:31:59;;;;;;;12.18;10.30;;;;;;;;;;5013849;28;20113;-75
2023/06/06 04:34:28;;;;;;;14.45;10.75;;;;;;;;;;5013180;28;20056;-75
2023/06/06 04:36:56;;;;;;;12.65;10.00;;;;;;;;;;4995257;28;20236;-75
2023/06/06 04:39:23;;;;;;;14.90;10.50;;;;;;;;;;5012961;28;20037;-75
2023/06/06 04:41:48;;;;;;;17.10;11.10;;;;;;;;;;4995919;28;20034;-75
2023/06/06 04:44:15;;;;;;;15.40;10.38;;;;;;;;;;5012490;28;20179;-75
2023/06/06 04:46:41;;;;;;;12.80;10.07;;;;;;;;;;5012350;28;20112;-76
2023/06/06 04:49:08;;;;;;;13.82;10.52;;;;;;;;;;4994479;28;20076;-75
2023/06/06 04:51:36;;;;;;;12.73;9.93;;;;;;;;;;5012221;28;20030;-77
2023/06/06 04:54:08;;;;;;;15.90;10.35;;;;;;;;;;5012307;28;20026;-76
2023/06/06 04:56:34;;;;;;;15.52;10.63;;;;;;;;;;5011295;28;20065;-75
2023/06/06 04:59:06;;;;;;;14.20;10.32;;;;;;;;;;4993580;28;20494;-76
2023/06/06 05:01:34;;;;;;;13.77;10.10;;;;;;;;;;5011825;28;20104;-76
2023/06/06 05:04:00;;;;;;;11.05;9.25;;;;;;;;;;5011991;28;20018;-76
2023/06/06 05:06:27;;;;;;;15.55;10.15;;;;;;;;;;5010127;28;20030;-76
2023/06/06 05:08:54;;;;;;;13.20;10.07;;;;;;;;;;4993518;28;20034;-75
2023/06/06 05:11:20;;;;;;;14.00;9.60;;;;;;;;;;5011152;28;20123;-75
2023/06/06 05:13:45;;;;;;;11.90;9.60;;;;;;;;;;4993521;28;20494;-75
2023/06/06 05:16:11;;;;;;;12.95;9.32;;;;;;;;;;4983537;28;20018;-74
2023/06/06 05:18:38;;;;;;;13.30;10.15;;;;;;;;;;5010202;28;20418;-75
2023/06/06 05:21:05;;;;;;;17.40;10.70;;;;;;;;;;5010648;28;20022;-75
2023/06/06 05:23:31;;;;;;;13.05;9.68;;;;;;;;;;4989909;28;20324;-75
2023/06/06 05:25:58;;;;;;;14.77;9.95;;;;;;;;;;5004931;28;20033;-75
2023/06/06 05:28:28;;;;;;;14.88;10.98;;;;;;;;;;4991839;28;20033;-74
2023/06/06 05:30:57;;;;;;;12.45;9.43;;;;;;;;;;4988914;28;20026;-76
2023/06/06 05:33:27;;;;;;;15.15;10.60;;;;;;;;;;4992087;28;20072;-74
2023/06/06 05:36:10;;;;;;;12.48;8.93;;;;;;;;;;5011286;28;20030;-74
2023/06/06 05:38:35;;;;;;;12.55;8.18;;;;;;;;;;5001036;28;20373;-73
2023/06/06 05:41:01;;;;;;;15.10;9.30;;;;;;;;;;5001365;28;20034;-76
2023/06/06 05:43:30;;;;;;;14.00;9.48;;;;;;;;;;5019954;28;20593;-74
2023/06/06 05:45:56;;;;;;;8.90;7.88;;;;;;;;;;4986220;28;20029;-74
2023/06/06 05:48:22;;;;;;;13.82;7.93;;;;;;;;;;4983458;28;20493;-76
2023/06/06 05:50:48;;;;;;;10.75;8.13;;;;;;;;;;5007576;28;20116;-74
2023/06/06 05:53:13;;;;;;;10.65;7.97;;;;;;;;;;4985587;28;20033;-78
2023/06/06 05:55:39;;;;;;;10.30;7.25;;;;;;;;;;4989190;28;21605;-79
2023/06/06 05:58:05;;;;;;;9.90;7.00;;;;;;;;;;4983136;28;21688;-74
2023/06/06 06:00:34;;;;;;;11.07;7.75;;;;;;;;;;4956123;28;20657;-75
2023/06/06 06:03:01;;;;;;;11.80;7.45;;;;;;;;;;4958896;28;20035;-76
2023/06/06 06:05:28;;;;;;;8.43;6.60;;;;;;;;;;4959292;28;20019;-77
2023/06/06 06:08:04;;;;;;;11.10;8.15;;;;;;;;;;4955231;28;20023;-74
2023/06/06 06:10:39;;;;;;;10.20;6.80;;;;;;;;;;4959569;28;20081;-76
2023/06/06 06:13:05;;;;;;;10.10;7.35;;;;;;;;;;4957721;28;20384;-75
2023/06/06 06:15:32;;;;;;;11.18;7.22;;;;;;;;;;4942551;28;20039;-76
2023/06/06 06:17:59;;;;;;;11.00;7.38;;;;;;;;;;4942223;28;20035;-72
2023/06/06 06:20:24;;;;;;;11.85;8.00;;;;;;;;;;4936143;28;20049;-74
2023/06/06 06:22:50;;;;;;;9.95;7.40;;;;;;;;;;4962180;28;20102;-75
2023/06/06 06:25:20;;;;;;;9.75;6.95;;;;;;;;;;4974417;28;20109;-75
2023/06/06 06:27:47;;;;;;;13.40;7.50;;;;;;;;;;4962229;28;20031;-77
2023/06/06 06:30:13;;;;;;;13.48;8.45;;;;;;;;;;4959409;28;20035;-80
2023/06/06 06:32:41;;;;;;;11.43;8.38;;;;;;;;;;4941889;28;20133;-77
2023/06/06 06:35:07;;;;;;;10.50;8.35;;;;;;;;;;4958369;28;20043;-75
2023/06/06 06:37:37;;;;;;;13.50;8.02;;;;;;;;;;4960490;28;20027;-75
2023/06/06 06:40:09;;;;;;;9.20;7.90;;;;;;;;;;4957687;28;20054;-78
2023/06/06 06:42:42;;;;;;;8.40;7.43;;;;;;;;;;4958658;28;20110;-76
2023/06/06 06:45:10;;;;;;;13.50;8.40;;;;;;;;;;4961523;28;20546;-76
2023/06/06 06:47:36;;;;;;;12.77;8.68;;;;;;;;;;4962642;28;20280;-77
2023/06/06 06:50:04;;;;;;;10.70;7.45;;;;;;;;;;4950585;28;20022;-76
2023/06/06 06:52:33;;;;;;;10.48;8.05;;;;;;;;;;4964312;28;20543;-76
2023/06/06 06:55:00;;;;;;;10.52;7.97;;;;;;;;;;4961018;28;21332;-76
2023/06/06 06:57:29;;;;;;;29.15;14.02;;;;;;;;;;4961926;28;20018;-77
2023/06/06 06:59:59;;;;;;;10.35;8.73;;;;;;;;;;4979769;28;20207;-75
2023/06/06 07:02:27;;;;;;;14.35;9.18;;;;;;;;;;5008000;28;20068;-75
2023/06/06 07:04:57;;;;;;;10.95;9.48;;;;;;;;;;4992571;28;20030;-75
2023/06/06 07:07:24;;;;;;;16.23;10.00;;;;;;;;;;5008617;28;20478;-74
2023/06/06 07:09:50;;;;;;;11.95;8.75;;;;;;;;;;5003737;28;20117;-74
2023/06/06 07:12:16;;;;;;;12.32;9.73;;;;;;;;;;4997556;28;20038;-74
2023/06/06 07:14:41;;;;;;;12.52;9.90;;;;;;;;;;4982426;28;20030;-75
2023/06/06 07:17:16;;;;;;;14.27;9.80;;;;;;;;;;5000629;28;20405;-80
2023/06/06 07:19:43;;;;;;;12.00;9.32;;;;;;;;;;4997565;28;20029;-79
2023/06/06 07:22:10;;;;;;;12.35;9.55;;;;;;;;;;4987497;28;20038;-80
2023/06/06 07:24:36;;;;;;;15.02;9.65;;;;;;;;;;4976902;28;20069;-76
2023/06/06 07:27:02;;;;;;;16.00;9.57;;;;;;;;;;4978626;28;20204;-76
2023/06/06 07:29:30;;;;;;;11.18;9.85;;;;;;;;;;4979685;28;20079;-79
2023/06/06 07:31:55;;;;;;;11.68;9.07;;;;;;;;;;5002534;28;20101;-77
2023/06/06 07:34:22;;;;;;;11.15;9.25;;;;;;;;;;4983833;28;20053;-78
2023/06/06 07:36:48;;;;;;;10.63;8.63;;;;;;;;;;4978128;28;20345;-74
2023/06/06 07:39:14;;;;;;;12.52;10.32;;;;;;;;;;4996549;28;20033;-74
2023/06/06 07:41:40;;;;;;;11.85;8.55;;;;;;;;;;4995340;28;20029;-77
2023/06/06 07:44:05;;;;;;;10.80;9.23;;;;;;;;;;4983109;28;20025;-76
2023/06/06 07:46:31;;;;;;;11.20;9.45;;;;;;;;;;5002841;28;20068;-76
2023/06/06 07:48:58;;;;;;;15.35;9.18;;;;;;;;;;4984452;28;20691;-77
2023/06/06 07:51:23;;;;;;;10.80;9.20;;;;;;;;;;4997688;28;20033;-75
2023/06/06 07:53:50;;;;;;;13.13;9.32;;;;;;;;;;4984269;28;20033;-76
2023/06/06 07:56:18;;;;;;;13.07;9.55;;;;;;;;;;4997722;28;20046;-79
2023/06/06 07:58:52;;;;;;;14.75;11.25;;;;;;;;;;4994207;28;20026;-75
2023/06/06 08:01:21;;;;;;;14.23;10.70;;;;;;;;;;4976850;28;20544;-74
2023/06/06 08:03:51;;;;;;;12.45;9.82;;;;;;;;;;5001104;28;20113;-74
2023/06/06 08:06:20;;;;;;;12.77;10.27;;;;;;;;;;4976870;28;20080;-75
2023/06/06 08:08:48;;;;;;;11.90;10.38;;;;;;;;;;5001600;28;20044;-77
2023/06/06 08:11:16;;;;;;;13.43;10.70;;;;;;;;;;4976745;28;20449;-76
2023/06/06 08:13:42;;;;;;;14.88;10.80;;;;;;;;;;4991449;28;20372;-75
2023/06/06 08:16:08;;;;;;;15.60;10.68;;;;;;;;;;4985633;28;20030;-78
2023/06/06 08:18:35;;;;;;;14.05;10.65;;;;;;;;;;4982005;28;20042;-76
2023/06/06 08:21:01;;;;;;;14.70;10.80;;;;;;;;;;4998282;28;20125;-75
2023/06/06 08:23:26;;;;;;;15.43;11.18;;;;;;;;;;4991991;28;20140;-74
2023/06/06 08:25:55;;;;;;;17.17;11.73;;;;;;;;;;4984750;28;20034;-76
2023/06/06 08:28:23;;;;;;;20.73;12.32;;;;;;;;;;4976862;28;20033;-75
2023/06/06 08:30:52;;;;;;;15.85;12.65;;;;;;;;;;4970431;28;20026;-74
2023/06/06 08:33:19;;;;;;;23.30;12.15;;;;;;;;;;4985752;28;20037;-75
2023/06/06 08:35:54;;;;;;;19.95;12.63;;;;;;;;;;4993757;28;20049;-76
2023/06/06 08:38:19;;;;;;;17.50;13.05;;;;;;;;;;4998275;28;20516;-75
2023/06/06 08:40:45;;;;;;;19.25;13.65;;;;;;;;;;5000746;28;20117;-75
2023/06/06 08:43:12;;;;;;;17.42;13.15;;;;;;;;;;4987876;28;20116;-76
2023/06/06 08:45:42;;;;;;;18.35;13.20;;;;;;;;;;4985438;28;20029;-75
2023/06/06 08:48:10;;;;;;;17.45;13.57;;;;;;;;;;4986473;28;20883;-73
2023/06/06 08:50:38;;;;;;;17.02;12.73;;;;;;;;;;5000177;28;20038;-73
2023/06/06 08:53:06;;;;;;;15.05;12.20;;;;;;;;;;4989930;28;20034;-78
2023/06/06 08:55:34;;;;;;;20.45;12.95;;;;;;;;;;5002124;28;20034;-77
2023/06/06 08:58:03;;;;;;;20.13;12.90;;;;;;;;;;4980836;28;20080;-74
2023/06/06 09:00:29;;;;;;;14.93;11.95;;;;;;;;;;5005147;28;20053;-75
2023/06/06 09:02:59;;;;;;;14.18;12.25;;;;;;;;;;5004841;28;20033;-77
2023/06/06 09:05:25;;;;;;;18.00;11.80;;;;;;;;;;4998833;28;20061;-76
2023/06/06 09:07:53;;;;;;;14.10;12.48;;;;;;;;;;4988813;28;20029;-75
2023/06/06 09:10:19;;;;;;;14.93;12.50;;;;;;;;;;5000191;28;20029;-73
2023/06/06 09:12:46;;;;;;;15.98;12.05;;;;;;;;;;4999496;28;20042;-74
2023/06/06 09:15:14;;;;;;;18.17;12.13;;;;;;;;;;4981934;28;20126;-75
2023/06/06 09:17:44;;;;;;;17.50;13.20;;;;;;;;;;4999186;28;20038;-74
2023/06/06 09:20:12;;;;;;;20.70;12.18;;;;;;;;;;4987461;28;20048;-75
2023/06/06 09:22:49;;;;;;;15.02;12.23;;;;;;;;;;4999778;28;20119;-75
2023/06/06 09:25:22;;;;;;;18.75;14.02;;;;;;;;;;4969024;28;20026;-77
2023/06/06 09:27:56;;;;;;;18.35;13.38;;;;;;;;;;5003292;28;20120;-75
2023/06/06 09:30:28;;;;;;;15.85;12.80;;;;;;;;;;4981224;28;20034;-75
2023/06/06 09:33:05;;;;;;;;;;;;;;;;;;4983169;28;20286;-75
2023/06/06 09:35:50;;;;;;;15.90;11.98;;;;;;;;;;5002972;28;20018;-76
2023/06/06 09:38:18;;;;;;;18.92;13.05;;;;;;;;;;5003500;28;21581;-76
2023/06/06 09:40:52;;;;;;;17.90;13.50;;;;;;;;;;4999619;28;20037;-76
2023/06/06 09:43:25;;;;;;;18.38;12.95;;;;;;;;;;5011983;28;20104;-77
2023/06/06 09:45:54;;;;;;;16.67;13.75;;;;;;;;;;5011747;28;20083;-77
2023/06/06 09:48:23;;;;;;;18.70;15.52;;;;;;;;;;4990957;28;20034;-76
2023/06/06 09:51:05;;;;;;;20.38;14.10;;;;;;;;;;5004641;28;20228;-75
2023/06/06 09:53:31;;;;;;;18.42;13.82;;;;;;;;;;5013805;28;20168;-74
2023/06/06 09:56:24;;;;;;;15.45;13.85;;;;;;;;;;4996765;28;20050;-76
2023/06/06 09:58:56;;;;;;;16.33;13.45;;;;;;;;;;5015944;28;20033;-73
2023/06/06 10:01:33;;;;;;;17.65;13.77;;;;;;;;;;5022353;28;20350;-78
2023/06/06 10:03:58;;;;;;;21.40;14.20;;;;;;;;;;4990313;28;20103;-75
2023/06/06 10:06:33;;;;;;;16.83;13.57;;;;;;;;;;4991931;28;20025;-77
2023/06/06 10:09:06;;;;;;;16.38;12.93;;;;;;;;;;4987865;28;20021;-76
2023/06/06 10:11:36;;;;;;;16.25;12.02;;;;;;;;;;4995935;28;20037;-77
2023/06/06 10:14:05;;;;;;;16.53;12.27;;;;;;;;;;5006046;28;20030;-76
2023/06/06 10:16:34;;;;;;;13.50;11.48;;;;;;;;;;5001234;28;20047;-76
2023/06/06 10:19:00;;;;;;;12.77;9.98;;;;;;;;;;4969026;28;20073;-75
2023/06/06 10:21:28;;;;;;;21.80;10.90;;;;;;;;;;5007243;28;20036;-74
2023/06/06 10:23:54;;;;;;;16.13;11.45;;;;;;;;;;4985313;28;20030;-75
2023/06/06 10:26:46;;;;;;;15.45;11.05;;;;;;;;;;4984583;28;20033;-76
2023/06/06 10:29:16;;;;;;;;;;;;;;;;;;5005562;28;20471;-77
2023/06/06 10:31:50;;;;;;;13.20;9.80;;;;;;;;;;4995628;28;20000;-77
2023/06/06 10:34:21;;;;;;;14.77;10.52;;;;;;;;;;4987087;28;20499;-78
2023/06/06 10:36:47;;;;;;;;;;;;;;;;;;5001709;28;20137;-79
2023/06/06 10:39:24;;;;;;;12.20;9.45;;;;;;;;;;4999108;28;19913;-77
2023/06/06 10:42:19;;;;;;;16.20;11.10;;;;;;;;;;4996623;28;20033;-78
2023/06/06 10:44:44;;;;;;;12.27;10.10;;;;;;;;;;4988555;28;20049;-77
2023/06/06 10:47:27;;;;;;;14.05;9.23;;;;;;;;;;4982027;28;20021;-78
2023/06/06 10:50:11;;;;;;;18.13;10.27;;;;;;;;;;4985164;28;20379;-76
2023/06/06 10:52:50;;;;;;;15.48;9.30;;;;;;;;;;5002679;28;20055;-77
2023/06/06 10:55:25;;;;;;;12.77;9.25;;;;;;;;;;4977007;28;20027;-74
2023/06/06 10:58:02;;;;;;;13.73;8.65;;;;;;;;;;4989147;28;20065;-76
2023/06/06 11:00:32;;;;;;;13.27;9.15;;;;;;;;;;4985835;28;20084;-75
2023/06/06 11:02:58;;;;;;;12.43;8.95;;;;;;;;;;4979317;28;20405;-74
2023/06/06 11:05:24;;;;;;;13.68;9.98;;;;;;;;;;4995640;28;20026;-76
2023/06/06 11:07:55;;;;;;;21.02;11.18;;;;;;;;;;4980760;28;20368;-76
2023/06/06 11:10:24;;;;;;;17.80;11.13;;;;;;;;;;4978031;28;20056;-76
2023/06/06 11:12:50;;;;;;;12.48;9.27;;;;;;;;;;4995040;28;20537;-76
2023/06/06 11:15:31;;;;;;;16.48;8.93;;;;;;;;;;5005834;28;20068;-75
2023/06/06 11:18:04;;;;;;;;;;;;;;;;;;4984980;28;20386;-76
2023/06/06 11:21:04;;;;;;;12.25;9.60;;;;;;;;;;4985258;28;20602;-76
2023/06/06 11:23:42;;;;;;;12.05;9.40;;;;;;;;;;4984368;28;20463;-76
2023/06/06 11:26:09;;;;;;;14.95;10.32;;;;;;;;;;4995457;28;20025;-75
2023/06/06 11:28:35;;;;;;;12.73;9.48;;;;;;;;;;5001657;28;20021;-77
2023/06/06 11:31:02;;;;;;;12.80;10.95;;;;;;;;;;4986977;28;20516;-75
2023/06/06 11:33:28;;;;;;;12.38;10.02;;;;;;;;;;5011539;28;20025;-76
2023/06/06 11:35:55;;;;;;;12.02;9.27;;;;;;;;;;4999254;28;20347;-76
2023/06/06 11:38:21;;;;;;;16.30;10.20;;;;;;;;;;5004311;28;20399;-76
2023/06/06 11:40:47;;;;;;;11.93;9.43;;;;;;;;;;4987411;28;20021;-75
2023/06/06 11:43:13;;;;;;;12.65;10.20;;;;;;;;;;4985785;28;20599;-75
2023/06/06 11:45:39;;;;;;;14.95;10.30;;;;;;;;;;4985794;28;20030;-77
2023/06/06 11:48:24;;;;;;;13.15;9.57;;;;;;;;;;4962784;28;20038;-76
2023/06/06 11:50:49;;;;;;;14.77;10.73;;;;;;;;;;4984982;28;20714;-77
2023/06/06 11:53:33;;;;;;;14.32;9.20;;;;;;;;;;4988916;28;20037;-76
2023/06/06 11:56:03;;;;;;;14.15;10.13;;;;;;;;;;4990535;28;20037;-76
2023/06/06 11:58:29;;;;;;;14.20;9.80;;;;;;;;;;4997846;28;20037;-75
2023/06/06 12:00:57;;;;;;;17.13;10.60;;;;;;;;;;5002585;28;20092;-76
2023/06/06 12:03:23;;;;;;;13.40;9.27;;;;;;;;;;4995260;28;20088;-73
2023/06/06 12:06:01;;;;;;;19.38;11.02;;;;;;;;;;5003667;28;20030;-74
2023/06/06 12:08:27;;;;;;;15.82;10.93;;;;;;;;;;4988564;28;20051;-73
2023/06/06 12:10:53;;;;;;;11.48;9.00;;;;;;;;;;5000132;28;20132;-75
2023/06/06 12:13:34;;;;;;;12.60;9.60;;;;;;;;;;4999327;28;20481;-75
2023/06/06 12:15:59;;;;;;;14.73;9.65;;;;;;;;;;4984864;28;20071;-76
2023/06/06 12:18:25;;;;;;;15.82;8.88;;;;;;;;;;5000566;28;20414;-74
2023/06/06 12:20:53;;;;;;;17.73;9.70;;;;;;;;;;4983870;28;20471;-75
2023/06/06 12:23:29;;;;;;;13.38;9.30;;;;;;;;;;4982852;28;20040;-75
2023/06/06 12:25:57;;;;;;;14.95;8.82;;;;;;;;;;5001705;28;20030;-76
2023/06/06 12:28:24;;;;;;;18.40;11.65;;;;;;;;;;5006192;28;20026;-76
2023/06/06 12:30:51;;;;;;;14.63;9.23;;;;;;;;;;4989282;28;20037;-75
2023/06/06 12:33:18;;;;;;;16.70;13.40;;;;;;;;;;4985755;28;20053;-76
2023/06/06 12:35:45;;;;;;;16.17;10.13;;;;;;;;;;5008242;28;20505;-76
2023/06/06 12:38:23;;;;;;;15.02;10.98;;;;;;;;;;5009580;28;20442;-76
2023/06/06 12:40:55;;;;;;;12.38;9.85;;;;;;;;;;4967377;28;20036;-76
2023/06/06 12:43:20;;;;;;;13.10;9.27;;;;;;;;;;4986909;28;20045;-76
2023/06/06 12:45:46;;;;;;;17.15;9.68;;;;;;;;;;4987808;28;20022;-77
2023/06/06 12:48:11;;;;;;;15.52;10.55;;;;;;;;;;4983405;28;20032;-75
2023/06/06 12:50:37;;;;;;;16.10;10.10;;;;;;;;;;5004579;28;20041;-76
2023/06/06 12:53:03;;;;;;;14.35;9.80;;;;;;;;;;4987722;28;20022;-75
2023/06/06 12:55:29;;;;;;;12.98;10.15;;;;;;;;;;4987543;28;20311;-76
2023/06/06 12:57:55;;;;;;;12.63;9.80;;;;;;;;;;4988903;28;20037;-75
2023/06/06 13:00:21;;;;;;;14.52;9.93;;;;;;;;;;4987483;28;20075;-77
2023/06/06 13:02:47;;;;;;;14.82;9.68;;;;;;;;;;4991630;28;20030;-78
2023/06/06 13:05:13;;;;;;;13.40;9.38;;;;;;;;;;4971271;28;20685;-78
2023/06/06 13:07:38;;;;;;;16.80;11.52;;;;;;;;;;5005918;28;20064;-77
2023/06/06 13:10:08;;;;;;;12.43;10.25;;;;;;;;;;5004754;28;20033;-76
2023/06/06 13:12:40;;;;;;;14.98;9.80;;;;;;;;;;5005941;28;20068;-77
2023/06/06 13:15:06;;;;;;;16.10;8.70;;;;;;;;;;5010153;28;20029;-77
2023/06/06 13:17:32;;;;;;;11.63;9.32;;;;;;;;;;5005224;28;20026;-77
2023/06/06 13:19:58;;;;;;;12.27;8.95;;;;;;;;;;4986643;28;20231;-78
2023/06/06 13:22:23;;;;;;;12.27;9.30;;;;;;;;;;5002058;28;20546;-74
2023/06/06 13:24:49;;;;;;;14.75;9.52;;;;;;;;;;4990062;28;20084;-75
2023/06/06 13:27:14;;;;;;;13.40;9.27;;;;;;;;;;4990486;28;20028;-75
2023/06/06 13:29:40;;;;;;;14.05;9.60;;;;;;;;;;4987658;28;20037;-76
2023/06/06 13:32:06;;;;;;;14.77;9.15;;;;;;;;;;4989348;28;20041;-78
2023/06/06 13:34:32;;;;;;;16.27;8.70;;;;;;;;;;4991041;28;20462;-76
2023/06/06 13:37:01;;;;;;;13.65;8.25;;;;;;;;;;5006277;28;20088;-76
2023/06/06 13:39:26;;;;;;;14.07;7.70;;;;;;;;;;4986587;28;20029;-75
2023/06/06 13:41:55;;;;;;;11.15;8.45;;;;;;;;;;5009872;28;20088;-76
2023/06/06 13:44:21;;;;;;;11.27;8.45;;;;;;;;;;4993553;28;20060;-76
2023/06/06 13:46:48;;;;;;;13.32;9.63;;;;;;;;;;5009753;28;20022;-77
2023/06/06 13:49:14;;;;;;;10.85;7.93;;;;;;;;;;5007141;28;20038;-76
2023/06/06 13:51:42;;;;;;;10.95;8.02;;;;;;;;;;4990908;28;20128;-76
2023/06/06 13:54:08;;;;;;;13.95;8.23;;;;;;;;;;5000942;28;20462;-78
2023/06/06 13:56:35;;;;;;;10.63;8.55;;;;;;;;;;4994719;28;20030;-76
2023/06/06 13:59:03;;;;;;;13.60;8.82;;;;;;;;;;5007277;28;20058;-74
2023/06/06 14:01:30;;;;;;;11.95;8.23;;;;;;;;;;4991462;28;20025;-76
2023/06/06 14:03:57;;;;;;;14.85;7.90;;;;;;;;;;5008271;28;20453;-77
2023/06/06 14:06:23;;;;;;;12.35;8.35;;;;;;;;;;4987043;28;20030;-78
2023/06/06 14:08:49;;;;;;;15.50;8.65;;;;;;;;;;5005444;28;20029;-78
2023/06/06 14:11:16;;;;;;;12.20;8.55;;;;;;;;;;4990344;28;20104;-79
2023/06/06 14:13:47;;;;;;;11.65;8.23;;;;;;;;;;4998870;28;20055;-77
2023/06/06 14:16:16;;;;;;;12.77;8.02;;;;;;;;;;5007054;28;20041;-77
2023/06/06 14:18:46;;;;;;;14.68;7.78;;;;;;;;;;5023422;28;20053;-72
2023/06/06 14:23:43;;;;;;;11.48;8.60;;;;;;;;;;5022335;28;20483;-77
2023/06/06 14:26:09;;;;;;;12.63;8.60;;;;;;;;;;4991855;28;20025;-75
2023/06/06 14:28:35;;;;;;;14.52;8.88;;;;;;;;;;4986429;28;20037;-77
2023/06/06 14:31:04;;;;;;;21.75;10.35;;;;;;;;;;5007941;28;20029;-79
2023/06/06 14:33:39;;;;;;;17.73;9.98;;;;;;;;;;4988352;28;20026;-77